Time;durP1;ratioP1;P1;durP2;ratioP2;P2;SDS_P1;SDS_P2;PMS_P1;PMS_P2;Temp;Humidity;BMP_temperature;BMP_pressure;BME280_temperature;BME280_humidity;BME280_pressure;Samples;Min_cycle;Max_cycle;Signal;HPM_P1;HPM_P2
2021/12/15 00:01:51;;;;;;;4.88;2.25;;;;;;;;;;4993594;28;20015;-66
2021/12/15 00:04:18;;;;;;;7.20;2.58;;;;;;;;;;4991714;28;20034;-65
2021/12/15 00:06:45;;;;;;;5.82;2.60;;;;;;;;;;4992106;28;20061;-67
2021/12/15 00:09:13;;;;;;;6.38;2.70;;;;;;;;;;4992316;28;20460;-66
2021/12/15 00:11:41;;;;;;;5.47;2.67;;;;;;;;;;5005983;28;20490;-66
2021/12/15 00:14:13;;;;;;;6.25;2.50;;;;;;;;;;5009739;28;20037;-67
2021/12/15 00:16:40;;;;;;;4.00;2.25;;;;;;;;;;5010221;28;20053;-65
2021/12/15 00:19:10;;;;;;;8.60;2.33;;;;;;;;;;5008598;28;20037;-61
2021/12/15 00:21:37;;;;;;;8.43;2.13;;;;;;;;;;5007862;28;20034;-66
2021/12/15 00:24:06;;;;;;;11.00;2.45;;;;;;;;;;5007508;28;20451;-62
2021/12/15 00:26:33;;;;;;;6.60;2.08;;;;;;;;;;5007876;28;20026;-63
2021/12/15 00:29:02;;;;;;;8.32;2.03;;;;;;;;;;5009238;28;20022;-64
2021/12/15 00:31:34;;;;;;;6.90;1.98;;;;;;;;;;5008312;28;20032;-66
2021/12/15 00:34:05;;;;;;;8.75;2.22;;;;;;;;;;5000484;28;20060;-67
2021/12/15 00:36:33;;;;;;;9.83;2.83;;;;;;;;;;5004581;28;20482;-63
2021/12/15 00:39:01;;;;;;;4.68;2.33;;;;;;;;;;5007561;28;20026;-62
2021/12/15 00:41:28;;;;;;;9.20;2.10;;;;;;;;;;5000551;28;20564;-66
2021/12/15 00:43:56;;;;;;;8.20;1.90;;;;;;;;;;5000379;28;20070;-63
2021/12/15 00:46:23;;;;;;;6.90;2.45;;;;;;;;;;4999239;28;20014;-63
2021/12/15 00:48:51;;;;;;;39.55;2.92;;;;;;;;;;5001346;28;20046;-62
2021/12/15 00:51:28;;;;;;;15.80;2.63;;;;;;;;;;5000444;28;20030;-64
2021/12/15 00:53:58;;;;;;;9.15;2.38;;;;;;;;;;5004575;28;20568;-65
2021/12/15 00:56:28;;;;;;;13.35;2.58;;;;;;;;;;5005481;28;20541;-65
2021/12/15 00:58:56;;;;;;;13.50;3.03;;;;;;;;;;4999992;28;20439;-62
2021/12/15 01:01:27;;;;;;;13.07;2.80;;;;;;;;;;5004711;28;20034;-62
2021/12/15 01:03:54;;;;;;;12.45;3.17;;;;;;;;;;5000847;28;20088;-64
2021/12/15 01:06:22;;;;;;;14.20;3.35;;;;;;;;;;4994632;28;20022;-62
2021/12/15 01:08:55;;;;;;;12.07;2.97;;;;;;;;;;4992214;28;20113;-62
2021/12/15 01:11:43;;;;;;;12.85;3.10;;;;;;;;;;4999264;28;20671;-62
2021/12/15 01:14:33;;;;;;;19.33;3.20;;;;;;;;;;5012664;28;20529;-64
2021/12/15 01:19:52;;;;;;;14.52;3.10;;;;;;;;;;5006729;28;20076;-62
2021/12/15 01:22:20;;;;;;;;;;;;;;;;;;5004033;28;20077;-62
2021/12/15 01:24:47;;;;;;;22.33;4.10;;;;;;;;;;5001414;28;19909;-63
2021/12/15 01:27:26;;;;;;;21.95;6.47;;;;;;;;;;5004401;28;20474;-65
2021/12/15 01:29:54;;;;;;;21.48;5.75;;;;;;;;;;5004044;28;20488;-62
2021/12/15 01:32:25;;;;;;;21.50;5.00;;;;;;;;;;5006959;28;20037;-62
2021/12/15 01:34:55;;;;;;;19.00;5.25;;;;;;;;;;5005242;28;20117;-66
2021/12/15 01:37:25;;;;;;;14.43;4.70;;;;;;;;;;4999154;28;20022;-62
2021/12/15 01:39:56;;;;;;;18.67;3.95;;;;;;;;;;4999847;28;20035;-63
2021/12/15 01:42:29;;;;;;;14.90;4.03;;;;;;;;;;4996894;28;20029;-62
2021/12/15 01:47:47;;;;;;;22.38;5.45;;;;;;;;;;5006016;28;19963;-61
2021/12/15 01:50:14;;;;;;;15.82;4.75;;;;;;;;;;4997822;28;20053;-62
2021/12/15 01:52:54;;;;;;;14.90;5.03;;;;;;;;;;4998488;28;20096;-61
2021/12/15 01:55:24;;;;;;;14.68;4.30;;;;;;;;;;5002309;28;20019;-61
2021/12/15 01:57:54;;;;;;;11.02;3.92;;;;;;;;;;5000231;28;20029;-61
2021/12/15 02:00:27;;;;;;;13.10;3.40;;;;;;;;;;5002484;28;20021;-61
2021/12/15 02:02:56;;;;;;;12.27;3.53;;;;;;;;;;5003630;28;20049;-62
2021/12/15 02:05:25;;;;;;;14.00;3.72;;;;;;;;;;5004316;28;20022;-62
2021/12/15 02:07:55;;;;;;;12.55;3.83;;;;;;;;;;5002329;28;20115;-64
2021/12/15 02:10:35;;;;;;;15.75;4.47;;;;;;;;;;4987635;28;20049;-62
2021/12/15 02:13:07;;;;;;;11.15;2.65;;;;;;;;;;5002009;28;20022;-64
2021/12/15 02:15:38;;;;;;;11.10;2.70;;;;;;;;;;4997465;28;20026;-62
2021/12/15 02:18:08;;;;;;;9.48;3.15;;;;;;;;;;5004521;28;20381;-62
2021/12/15 02:21:06;;;;;;;15.27;3.15;;;;;;;;;;5001090;28;20077;-64
2021/12/15 02:23:50;;;;;;;17.23;3.60;;;;;;;;;;4989428;28;20042;-65
2021/12/15 02:26:26;;;;;;;9.75;3.78;;;;;;;;;;5014367;28;20177;-63
2021/12/15 02:29:15;;;;;;;17.45;4.47;;;;;;;;;;5004661;28;20060;-63
2021/12/15 02:39:33;;;;;;;11.27;2.72;;;;;;;;;;4999997;28;20125;-62
2021/12/15 02:42:00;;;;;;;9.00;3.05;;;;;;;;;;4998189;28;20058;-63
2021/12/15 02:44:31;;;;;;;10.77;3.08;;;;;;;;;;4999287;28;20489;-64
2021/12/15 02:46:59;;;;;;;7.45;2.55;;;;;;;;;;4996132;28;20531;-63
2021/12/15 02:49:32;;;;;;;11.57;2.30;;;;;;;;;;4995058;28;20038;-62
2021/12/15 02:52:08;;;;;;;8.95;2.47;;;;;;;;;;4991510;28;20041;-65
2021/12/15 02:54:36;;;;;;;7.65;2.15;;;;;;;;;;4990437;28;20075;-63
2021/12/15 02:57:12;;;;;;;8.45;2.00;;;;;;;;;;4994211;28;20031;-64
2021/12/15 02:59:59;;;;;;;12.13;2.60;;;;;;;;;;4997265;28;20033;-65
2021/12/15 03:05:26;;;;;;;7.78;2.30;;;;;;;;;;4998103;28;20038;-64
2021/12/15 03:16:10;;;;;;;6.65;1.60;;;;;;;;;;4998754;28;20041;-65
2021/12/15 03:18:39;;;;;;;29.77;2.10;;;;;;;;;;4993274;28;20041;-64
2021/12/15 03:21:12;;;;;;;8.77;1.88;;;;;;;;;;4998501;28;20069;-65
2021/12/15 03:23:48;;;;;;;5.93;1.67;;;;;;;;;;5000524;28;20041;-65
2021/12/15 03:26:18;;;;;;;8.95;1.50;;;;;;;;;;5002440;28;20537;-62
2021/12/15 03:34:47;;;;;;;17.48;1.73;;;;;;;;;;5002320;28;20096;-63
2021/12/15 03:37:25;;;;;;;8.40;1.50;;;;;;;;;;5001749;28;20029;-63
2021/12/15 03:40:08;;;;;;;7.65;1.23;;;;;;;;;;5002984;28;20105;-65
2021/12/15 03:42:41;;;;;;;8.07;1.10;;;;;;;;;;5004446;28;20026;-64
2021/12/15 03:45:10;;;;;;;7.88;1.30;;;;;;;;;;4998970;28;20157;-62
2021/12/15 03:47:40;;;;;;;6.07;1.45;;;;;;;;;;4996732;28;20405;-61
2021/12/15 03:50:08;;;;;;;2.97;1.30;;;;;;;;;;4996889;28;20113;-62
2021/12/15 03:52:35;;;;;;;6.10;1.08;;;;;;;;;;4997846;28;20752;-63
2021/12/15 03:55:04;;;;;;;4.65;1.40;;;;;;;;;;5007944;28;20037;-64
2021/12/15 03:57:31;;;;;;;3.15;1.00;;;;;;;;;;4991423;28;20109;-62
2021/12/15 03:59:58;;;;;;;3.55;1.00;;;;;;;;;;4996727;28;20600;-63
2021/12/15 04:02:26;;;;;;;5.00;0.95;;;;;;;;;;4995999;28;20066;-62
2021/12/15 04:04:53;;;;;;;4.30;0.93;;;;;;;;;;4993036;28;20030;-64
2021/12/15 04:07:21;;;;;;;3.42;0.80;;;;;;;;;;4999152;28;20041;-66
2021/12/15 04:09:50;;;;;;;3.90;1.17;;;;;;;;;;5006040;28;20505;-64
2021/12/15 04:12:17;;;;;;;4.60;1.17;;;;;;;;;;5017047;28;20037;-64
2021/12/15 04:14:46;;;;;;;2.95;0.90;;;;;;;;;;5009977;28;20013;-63
2021/12/15 04:17:34;;;;;;;5.20;0.85;;;;;;;;;;5011570;28;20025;-63
2021/12/15 04:20:05;;;;;;;7.88;1.27;;;;;;;;;;5006409;28;20037;-65
2021/12/15 04:22:32;;;;;;;4.13;0.82;;;;;;;;;;5001288;28;20493;-67
2021/12/15 04:24:59;;;;;;;8.30;1.42;;;;;;;;;;5005821;28;20033;-66
2021/12/15 04:27:26;;;;;;;2.80;0.77;;;;;;;;;;5007894;28;20474;-64
2021/12/15 04:29:53;;;;;;;2.72;0.68;;;;;;;;;;5005271;28;20034;-64
2021/12/15 04:32:32;;;;;;;5.47;1.33;;;;;;;;;;5005721;28;20037;-65
2021/12/15 04:34:59;;;;;;;5.18;1.08;;;;;;;;;;5006919;28;20037;-65
2021/12/15 04:37:27;;;;;;;8.30;1.40;;;;;;;;;;5006038;28;20114;-64
2021/12/15 04:39:54;;;;;;;6.07;1.27;;;;;;;;;;5008439;28;20026;-62
2021/12/15 04:42:23;;;;;;;4.90;0.98;;;;;;;;;;5009048;28;20032;-61
2021/12/15 04:44:52;;;;;;;2.83;0.60;;;;;;;;;;5005097;28;20034;-62
2021/12/15 04:47:19;;;;;;;1.63;0.70;;;;;;;;;;5005123;28;20018;-63
2021/12/15 04:49:50;;;;;;;4.28;0.90;;;;;;;;;;5004323;28;20038;-62
2021/12/15 04:52:18;;;;;;;7.10;0.95;;;;;;;;;;5005389;28;20589;-63
2021/12/15 04:54:45;;;;;;;2.90;0.88;;;;;;;;;;5005408;28;20049;-62
2021/12/15 04:57:14;;;;;;;3.22;0.70;;;;;;;;;;5006267;28;20544;-61
2021/12/15 04:59:41;;;;;;;3.60;0.50;;;;;;;;;;5020099;28;20030;-61
2021/12/15 05:02:09;;;;;;;2.47;0.65;;;;;;;;;;5005010;28;20386;-63
2021/12/15 05:04:36;;;;;;;3.08;0.80;;;;;;;;;;5005506;28;20096;-62
2021/12/15 05:07:04;;;;;;;2.70;0.60;;;;;;;;;;5005564;28;20049;-63
2021/12/15 05:09:31;;;;;;;4.38;0.85;;;;;;;;;;5007550;28;20033;-61
2021/12/15 05:11:58;;;;;;;2.40;0.70;;;;;;;;;;5008666;28;20057;-63
2021/12/15 05:14:26;;;;;;;2.28;0.70;;;;;;;;;;5007874;28;20053;-63
2021/12/15 05:16:54;;;;;;;3.88;0.88;;;;;;;;;;5006741;28;20030;-62
2021/12/15 05:19:21;;;;;;;1.98;0.60;;;;;;;;;;5005334;28;20501;-63
2021/12/15 05:21:50;;;;;;;2.53;0.70;;;;;;;;;;5005902;28;20033;-62
2021/12/15 05:24:30;;;;;;;2.38;0.93;;;;;;;;;;5005231;28;20038;-62
2021/12/15 05:26:58;;;;;;;1.63;0.70;;;;;;;;;;5004737;28;20022;-63
2021/12/15 05:29:25;;;;;;;2.90;0.70;;;;;;;;;;5008535;28;20380;-65
2021/12/15 05:31:53;;;;;;;4.20;1.10;;;;;;;;;;5003990;28;20413;-63
2021/12/15 05:34:20;;;;;;;8.45;2.13;;;;;;;;;;5005968;28;20026;-63
2021/12/15 05:36:48;;;;;;;4.25;1.33;;;;;;;;;;5004157;28;20026;-62
2021/12/15 05:39:15;;;;;;;4.38;1.67;;;;;;;;;;5004832;28;21825;-62
2021/12/15 05:41:43;;;;;;;3.65;1.70;;;;;;;;;;5009754;28;20076;-64
2021/12/15 05:44:10;;;;;;;4.20;1.38;;;;;;;;;;5010551;28;20393;-62
2021/12/15 05:46:44;;;;;;;3.03;1.25;;;;;;;;;;5003299;28;20037;-62
2021/12/15 05:49:23;;;;;;;8.25;1.65;;;;;;;;;;5002313;28;20093;-62
2021/12/15 05:51:56;;;;;;;4.75;1.60;;;;;;;;;;5008896;28;20113;-64
2021/12/15 05:54:24;;;;;;;4.00;2.00;;;;;;;;;;5003192;28;20030;-63
2021/12/15 05:56:51;;;;;;;7.90;2.58;;;;;;;;;;4997561;28;20030;-61
2021/12/15 05:59:18;;;;;;;4.72;2.30;;;;;;;;;;4990848;28;20027;-63
2021/12/15 06:01:46;;;;;;;6.32;2.17;;;;;;;;;;5007076;28;20026;-65
2021/12/15 06:04:13;;;;;;;5.72;2.05;;;;;;;;;;5009955;28;20030;-65
2021/12/15 06:06:40;;;;;;;7.32;2.60;;;;;;;;;;5010705;28;20065;-66
2021/12/15 06:09:09;;;;;;;6.82;1.90;;;;;;;;;;5010838;28;20036;-63
2021/12/15 06:11:37;;;;;;;6.75;2.13;;;;;;;;;;5010378;28;20034;-66
2021/12/15 06:14:05;;;;;;;5.35;2.22;;;;;;;;;;5010565;28;20021;-66
2021/12/15 06:16:33;;;;;;;5.65;1.88;;;;;;;;;;5009149;28;20025;-66
2021/12/15 06:19:02;;;;;;;7.25;2.25;;;;;;;;;;5010876;28;20434;-66
2021/12/15 06:21:31;;;;;;;5.75;2.42;;;;;;;;;;5010514;28;20037;-65
2021/12/15 06:23:58;;;;;;;4.53;1.92;;;;;;;;;;5010267;28;20081;-64
2021/12/15 06:26:25;;;;;;;5.47;2.25;;;;;;;;;;5009932;28;20034;-66
2021/12/15 06:28:52;;;;;;;5.68;2.40;;;;;;;;;;5009367;28;20026;-65
2021/12/15 06:31:19;;;;;;;6.43;2.78;;;;;;;;;;5010679;28;20025;-63
2021/12/15 06:33:47;;;;;;;6.38;2.72;;;;;;;;;;5010395;28;20061;-63
2021/12/15 06:36:20;;;;;;;5.50;2.85;;;;;;;;;;5010440;28;20164;-63
2021/12/15 06:38:48;;;;;;;6.10;2.22;;;;;;;;;;5010487;28;20033;-62
2021/12/15 06:41:16;;;;;;;5.13;1.55;;;;;;;;;;5010323;28;20029;-62
2021/12/15 06:43:46;;;;;;;2.10;1.33;;;;;;;;;;5012601;28;20117;-63
2021/12/15 06:59:55;;;;;;;5.18;1.10;;;;;;;;;;5013227;28;20037;-65
2021/12/15 07:02:23;;;;;;;2.03;0.88;;;;;;;;;;5013058;28;20079;-62
2021/12/15 07:04:50;;;;;;;3.28;0.90;;;;;;;;;;5013614;28;20034;-64
2021/12/15 07:07:17;;;;;;;3.38;0.70;;;;;;;;;;5013324;28;20108;-63
2021/12/15 07:09:44;;;;;;;3.50;0.65;;;;;;;;;;5013407;28;20094;-64
2021/12/15 07:12:11;;;;;;;2.05;0.93;;;;;;;;;;5013617;28;20415;-61
2021/12/15 07:14:38;;;;;;;1.45;0.82;;;;;;;;;;5013603;28;20120;-62
2021/12/15 07:17:10;;;;;;;1.75;0.60;;;;;;;;;;5012555;28;20033;-63
2021/12/15 07:20:04;;;;;;;3.22;0.75;;;;;;;;;;5013693;28;20025;-62
2021/12/15 07:22:43;;;;;;;3.60;0.70;;;;;;;;;;5013537;28;20108;-61
2021/12/15 07:25:11;;;;;;;2.88;0.60;;;;;;;;;;5013306;28;20049;-61
2021/12/15 07:27:38;;;;;;;4.05;0.70;;;;;;;;;;5012995;28;20366;-63
2021/12/15 07:30:06;;;;;;;1.55;0.60;;;;;;;;;;5013070;28;20108;-63
2021/12/15 07:32:33;;;;;;;2.72;0.70;;;;;;;;;;5013040;28;20095;-63
2021/12/15 07:35:00;;;;;;;2.92;0.85;;;;;;;;;;5013033;28;20385;-64
2021/12/15 07:37:27;;;;;;;2.78;0.75;;;;;;;;;;5013350;28;20450;-62
2021/12/15 07:39:58;;;;;;;2.92;0.40;;;;;;;;;;5012698;28;20034;-62
2021/12/15 07:42:34;;;;;;;1.80;0.70;;;;;;;;;;5012957;28;20465;-63
2021/12/15 07:45:01;;;;;;;4.90;0.80;;;;;;;;;;5014215;28;20041;-62
2021/12/15 07:47:28;;;;;;;2.55;0.60;;;;;;;;;;5012437;28;20026;-64
2021/12/15 07:49:57;;;;;;;2.10;0.57;;;;;;;;;;5013101;28;20029;-64
2021/12/15 07:52:24;;;;;;;4.13;0.77;;;;;;;;;;5008601;28;20034;-63
2021/12/15 07:54:51;;;;;;;1.90;0.52;;;;;;;;;;5003269;28;20088;-64
2021/12/15 07:57:20;;;;;;;1.10;0.52;;;;;;;;;;5012353;28;20028;-63
2021/12/15 07:59:48;;;;;;;2.75;0.63;;;;;;;;;;5010806;28;20037;-62
2021/12/15 08:02:15;;;;;;;2.17;0.47;;;;;;;;;;5011617;28;20036;-62
2021/12/15 08:04:42;;;;;;;1.80;0.68;;;;;;;;;;5011584;28;20042;-63
2021/12/15 08:07:09;;;;;;;3.83;0.73;;;;;;;;;;5012420;28;20030;-64
2021/12/15 08:09:36;;;;;;;3.00;0.52;;;;;;;;;;5012020;28;20494;-63
2021/12/15 08:12:03;;;;;;;2.85;0.50;;;;;;;;;;5008971;28;20482;-63
2021/12/15 08:14:30;;;;;;;1.42;0.50;;;;;;;;;;5012457;28;20113;-63
2021/12/15 08:16:57;;;;;;;2.47;0.43;;;;;;;;;;5008896;28;20114;-63
2021/12/15 08:19:25;;;;;;;2.67;0.70;;;;;;;;;;4991767;28;20489;-63
2021/12/15 08:21:52;;;;;;;3.65;0.80;;;;;;;;;;4992921;28;20064;-63
2021/12/15 08:24:19;;;;;;;1.98;0.65;;;;;;;;;;5011748;28;20048;-64
2021/12/15 08:26:47;;;;;;;0.70;0.57;;;;;;;;;;5012453;28;20030;-62
2021/12/15 08:29:14;;;;;;;2.88;0.70;;;;;;;;;;4993685;28;20033;-63
2021/12/15 08:31:41;;;;;;;3.75;0.60;;;;;;;;;;4991403;28;20041;-63
2021/12/15 08:34:08;;;;;;;3.33;0.80;;;;;;;;;;4991344;28;20034;-63
2021/12/15 08:36:36;;;;;;;3.72;0.85;;;;;;;;;;4996123;28;20030;-63
2021/12/15 08:39:04;;;;;;;4.88;0.80;;;;;;;;;;4990362;28;20153;-63
2021/12/15 08:41:31;;;;;;;4.93;0.73;;;;;;;;;;4995733;28;20038;-65
2021/12/15 08:43:58;;;;;;;3.55;0.88;;;;;;;;;;4990802;28;20065;-66
2021/12/15 08:46:31;;;;;;;4.88;1.00;;;;;;;;;;4991508;28;20058;-66
2021/12/15 08:48:59;;;;;;;4.47;1.00;;;;;;;;;;5000022;28;20114;-64
2021/12/15 08:51:27;;;;;;;1.65;0.68;;;;;;;;;;4991938;28;20022;-67
2021/12/15 08:54:00;;;;;;;1.52;0.65;;;;;;;;;;4992037;28;20720;-66
2021/12/15 08:56:27;;;;;;;3.70;1.08;;;;;;;;;;5011771;28;20597;-66
2021/12/15 08:58:55;;;;;;;2.00;0.77;;;;;;;;;;5011034;28;20093;-64
2021/12/15 09:01:23;;;;;;;3.05;0.80;;;;;;;;;;5011907;28;20014;-66
2021/12/15 09:03:50;;;;;;;1.67;1.08;;;;;;;;;;5009716;28;20109;-65
2021/12/15 09:06:18;;;;;;;3.63;0.98;;;;;;;;;;5011167;28;20037;-66
2021/12/15 09:08:46;;;;;;;2.45;1.10;;;;;;;;;;5011542;28;20034;-63
2021/12/15 09:11:15;;;;;;;4.43;1.25;;;;;;;;;;5008883;28;20034;-63
2021/12/15 09:13:43;;;;;;;5.03;1.40;;;;;;;;;;5009341;28;20037;-62
2021/12/15 09:16:11;;;;;;;4.28;1.58;;;;;;;;;;4992214;28;20104;-61
2021/12/15 09:18:39;;;;;;;5.90;1.40;;;;;;;;;;4991449;28;20093;-63
2021/12/15 09:21:07;;;;;;;3.22;1.10;;;;;;;;;;4991853;28;20026;-64
2021/12/15 09:23:34;;;;;;;2.20;1.25;;;;;;;;;;4999604;28;20038;-63
2021/12/15 09:26:01;;;;;;;4.32;1.10;;;;;;;;;;5011588;28;20024;-65
2021/12/15 09:28:30;;;;;;;6.57;1.30;;;;;;;;;;5010617;28;20045;-65
2021/12/15 09:30:57;;;;;;;2.78;1.00;;;;;;;;;;5010169;28;20022;-64
2021/12/15 09:33:25;;;;;;;3.92;1.10;;;;;;;;;;5011460;28;20026;-63
2021/12/15 09:35:53;;;;;;;3.92;1.40;;;;;;;;;;5009523;28;20084;-63
2021/12/15 09:38:21;;;;;;;4.63;1.40;;;;;;;;;;5009954;28;20045;-61
2021/12/15 09:40:49;;;;;;;3.55;1.25;;;;;;;;;;5010591;28;20099;-65
2021/12/15 09:43:17;;;;;;;9.75;2.00;;;;;;;;;;5011600;28;20109;-63
2021/12/15 10:10:38;;;;;;;2.92;0.95;;;;;;;;;;5008237;28;20041;-69
2021/12/15 10:18:32;;;;;;;4.25;1.20;;;;;;;;;;5010666;28;20410;-64
2021/12/15 10:21:00;;;;;;;6.22;0.98;;;;;;;;;;5012883;28;20173;-65
2021/12/15 10:23:35;;;;;;;6.35;1.30;;;;;;;;;;5012121;28;20046;-60
2021/12/15 10:26:02;;;;;;;7.43;1.33;;;;;;;;;;5013780;28;20025;-62
2021/12/15 10:28:30;;;;;;;8.00;1.27;;;;;;;;;;5013011;28;20610;-63
2021/12/15 10:31:08;;;;;;;4.88;0.90;;;;;;;;;;5012944;28;20029;-63
2021/12/15 10:33:36;;;;;;;5.95;1.25;;;;;;;;;;5013350;28;20057;-62
2021/12/15 10:36:06;;;;;;;6.38;1.13;;;;;;;;;;5012492;28;20501;-63
2021/12/15 10:38:53;;;;;;;14.80;1.33;;;;;;;;;;5011913;28;20490;-62
2021/12/15 10:41:20;;;;;;;5.82;1.40;;;;;;;;;;5007155;28;20100;-63
2021/12/15 10:43:47;;;;;;;6.60;1.05;;;;;;;;;;5012833;28;20564;-62
2021/12/15 10:46:34;;;;;;;7.40;1.08;;;;;;;;;;5006028;28;20498;-62
2021/12/15 10:49:07;;;;;;;9.35;1.55;;;;;;;;;;5008016;28;20029;-63
2021/12/15 10:51:37;;;;;;;9.15;1.00;;;;;;;;;;5012004;28;20034;-60
2021/12/15 10:54:04;;;;;;;4.35;1.30;;;;;;;;;;5008865;28;20088;-61
2021/12/15 10:56:33;;;;;;;6.97;1.10;;;;;;;;;;5010294;28;20100;-62
2021/12/15 10:59:03;;;;;;;3.45;1.00;;;;;;;;;;5010912;28;20033;-62
2021/12/15 11:01:34;;;;;;;4.88;0.88;;;;;;;;;;5011180;28;20124;-61
2021/12/15 11:04:01;;;;;;;5.10;1.27;;;;;;;;;;5010002;28;20038;-64
2021/12/15 11:06:33;;;;;;;4.50;1.02;;;;;;;;;;5012933;28;20050;-62
2021/12/15 11:09:17;;;;;;;5.38;1.25;;;;;;;;;;5013326;28;20034;-63
2021/12/15 11:11:57;;;;;;;7.35;1.10;;;;;;;;;;5012351;28;20030;-64
2021/12/15 11:14:29;;;;;;;12.85;1.75;;;;;;;;;;5010170;28;20420;-63
2021/12/15 11:17:03;;;;;;;8.77;1.30;;;;;;;;;;5011907;28;20060;-65
2021/12/15 11:19:40;;;;;;;18.63;1.98;;;;;;;;;;5012673;28;20068;-63
2021/12/15 11:22:25;;;;;;;7.68;1.75;;;;;;;;;;5011565;28;20070;-66
2021/12/15 11:27:29;;;;;;;7.80;1.10;;;;;;;;;;5092668;23;19925;-64
2021/12/15 11:33:01;;;;;;;9.55;0.98;;;;;;;;;;4298621;28;20049;-53
2021/12/15 11:35:31;;;;;;;12.85;0.98;;;;;;;;;;4985108;28;20121;-63
2021/12/15 11:38:13;;;;;;;466.30;40.78;;;;;;;;;;4989401;28;20034;-41
2021/12/15 11:40:43;;;;;;;69.63;2.93;;;;;;;;;;4984981;28;20112;-45
2021/12/15 11:43:11;;;;;;;22.95;1.65;;;;;;;;;;4971771;28;20337;-40
2021/12/15 11:45:43;;;;;;;9.20;1.02;;;;;;;;;;4976668;28;20386;-41
2021/12/15 11:48:15;;;;;;;16.90;3.23;;;;;;;;;;4983342;28;20161;-44
2021/12/15 11:50:43;;;;;;;132.63;20.95;;;;;;;;;;4977572;28;20700;-48
2021/12/15 11:53:14;;;;;;;38.53;5.25;;;;;;;;;;4972596;28;20118;-52
2021/12/15 11:55:41;;;;;;;36.75;5.65;;;;;;;;;;4981716;28;20181;-44
2021/12/15 11:58:08;;;;;;;30.80;3.83;;;;;;;;;;4983310;28;20053;-49
2021/12/15 12:00:35;;;;;;;22.33;3.67;;;;;;;;;;4974618;28;20046;-55
2021/12/15 12:03:04;;;;;;;57.95;26.00;;;;;;;;;;4973592;28;20030;-59
2021/12/15 12:05:38;;;;;;;479.40;279.80;;;;;;;;;;4983375;28;20035;-50
2021/12/15 12:08:07;;;;;;;204.25;108.35;;;;;;;;;;4977683;28;20062;-53
2021/12/15 12:10:42;;;;;;;338.73;182.77;;;;;;;;;;4983380;28;20058;-56
2021/12/15 12:13:14;;;;;;;216.23;117.68;;;;;;;;;;4979744;28;20495;-59
2021/12/15 12:18:46;;;;;;;63.00;35.00;;;;;;;;;;5035364;28;20047;-66
2021/12/15 12:21:13;;;;;;;57.08;27.08;;;;;;;;;;5040800;28;20055;-62
2021/12/15 12:23:45;;;;;;;40.03;17.90;;;;;;;;;;5048810;28;20452;-55
2021/12/15 12:26:12;;;;;;;23.65;11.25;;;;;;;;;;5036918;28;20024;-59
2021/12/15 12:28:41;;;;;;;18.60;9.77;;;;;;;;;;5031939;28;20045;-61
2021/12/15 12:31:10;;;;;;;33.35;12.13;;;;;;;;;;5031588;28;20021;-49
2021/12/15 12:33:38;;;;;;;37.47;14.07;;;;;;;;;;5038340;28;20041;-56
2021/12/15 12:36:13;;;;;;;18.65;8.50;;;;;;;;;;5035984;28;20036;-50
2021/12/15 12:38:42;;;;;;;39.97;6.93;;;;;;;;;;5027244;28;21309;-51
2021/12/15 12:41:15;;;;;;;13.02;3.45;;;;;;;;;;5042683;28;20528;-49
2021/12/15 12:43:41;;;;;;;;;;;;;;;;;;5036078;28;20378;-46
2021/12/15 12:46:15;;;;;;;16.60;2.75;;;;;;;;;;5045207;28;19916;-52
2021/12/15 12:59:25;;;;;;;4.25;1.33;;;;;;;;;;5044940;28;20166;-53
2021/12/15 13:01:53;;;;;;;6.68;1.45;;;;;;;;;;5045853;28;20096;-53
2021/12/15 13:04:20;;;;;;;4.20;1.02;;;;;;;;;;5042196;28;20032;-50
2021/12/15 13:06:49;;;;;;;6.25;1.40;;;;;;;;;;5043651;28;20029;-50
2021/12/15 13:09:25;;;;;;;9.65;1.17;;;;;;;;;;5042402;28;20029;-62
2021/12/15 13:11:52;;;;;;;5.72;1.10;;;;;;;;;;5045015;28;20907;-55
2021/12/15 13:14:32;;;;;;;6.07;1.40;;;;;;;;;;5038372;28;20095;-50
2021/12/15 13:17:06;;;;;;;4.90;1.20;;;;;;;;;;5028075;28;20038;-52
2021/12/15 13:19:41;;;;;;;2.28;0.88;;;;;;;;;;5025776;28;20040;-46
2021/12/15 13:30:51;;;;;;;4.57;1.58;;;;;;;;;;5022937;28;20043;-49
2021/12/15 13:33:34;;;;;;;2.00;0.70;;;;;;;;;;5027314;28;20064;-50
2021/12/15 13:36:22;;;;;;;3.13;0.80;;;;;;;;;;5024712;28;20393;-47
2021/12/15 13:38:55;;;;;;;6.07;1.30;;;;;;;;;;5024840;28;20033;-46
2021/12/15 13:43:54;;;;;;;6.75;1.02;;;;;;;;;;4979134;28;20053;-46
2021/12/15 13:46:32;;;;;;;4.70;0.80;;;;;;;;;;4999402;28;20470;-54
2021/12/15 13:49:11;;;;;;;6.28;0.80;;;;;;;;;;5004130;28;20018;-51
2021/12/15 13:52:07;;;;;;;5.65;0.88;;;;;;;;;;5003673;28;20101;-50
2021/12/15 13:54:37;;;;;;;4.57;0.60;;;;;;;;;;4989566;28;20125;-48
2021/12/15 13:57:10;;;;;;;4.53;0.90;;;;;;;;;;5004927;28;20041;-53
2021/12/15 13:59:39;;;;;;;4.28;1.05;;;;;;;;;;4986268;28;20386;-51
2021/12/15 14:02:17;;;;;;;15.65;2.50;;;;;;;;;;5146605;23;20050;-51
2021/12/15 14:04:47;;;;;;;8.32;2.10;;;;;;;;;;4978448;28;20468;-51
2021/12/15 14:07:29;;;;;;;4.25;1.05;;;;;;;;;;4973492;28;20018;-54
2021/12/15 14:09:57;;;;;;;11.23;2.00;;;;;;;;;;4983261;28;20023;-51
2021/12/15 14:12:42;;;;;;;5.07;1.02;;;;;;;;;;4980499;28;20180;-50
2021/12/15 14:15:09;;;;;;;5.00;1.52;;;;;;;;;;5138510;23;20502;-53
2021/12/15 14:17:36;;;;;;;15.45;2.35;;;;;;;;;;4972332;28;20516;-55
2021/12/15 14:20:13;;;;;;;14.93;2.85;;;;;;;;;;4981084;28;20445;-50
2021/12/15 14:22:43;;;;;;;4.20;0.98;;;;;;;;;;4994133;28;20445;-49
2021/12/15 14:25:11;;;;;;;11.82;1.58;;;;;;;;;;4976298;28;20119;-53
2021/12/15 14:27:38;;;;;;;6.53;1.55;;;;;;;;;;4977244;28;20478;-51
2021/12/15 14:30:09;;;;;;;8.55;1.25;;;;;;;;;;4974399;28;20030;-53
2021/12/15 14:32:36;;;;;;;3.65;1.27;;;;;;;;;;4979487;28;20035;-51
2021/12/15 14:35:04;;;;;;;5.00;0.90;;;;;;;;;;4976582;28;20033;-52
2021/12/15 14:37:31;;;;;;;2.88;0.73;;;;;;;;;;4977664;28;20814;-51
2021/12/15 14:39:58;;;;;;;3.30;0.90;;;;;;;;;;4979247;28;20109;-57
2021/12/15 14:42:27;;;;;;;3.45;1.00;;;;;;;;;;4980747;28;20038;-56
2021/12/15 14:44:57;;;;;;;6.90;1.02;;;;;;;;;;4981442;28;20027;-51
2021/12/15 14:47:26;;;;;;;4.90;1.10;;;;;;;;;;4978640;28;20102;-48
2021/12/15 14:49:57;;;;;;;6.72;1.17;;;;;;;;;;4972502;28;20093;-54
2021/12/15 14:52:29;;;;;;;5.10;1.00;;;;;;;;;;4975354;28;20114;-55
2021/12/15 14:54:58;;;;;;;1.88;0.88;;;;;;;;;;4977038;28;20590;-53
2021/12/15 14:57:26;;;;;;;4.32;0.85;;;;;;;;;;4975722;28;20030;-55
2021/12/15 15:00:31;;;;;;;5.07;0.98;;;;;;;;;;4978368;28;20031;-49
2021/12/15 15:03:03;;;;;;;4.15;1.17;;;;;;;;;;4950103;28;20039;-58
2021/12/15 15:05:31;;;;;;;6.18;1.33;;;;;;;;;;4950170;28;20435;-54
2021/12/15 15:08:04;;;;;;;5.88;1.58;;;;;;;;;;4967972;28;20050;-53
2021/12/15 15:10:33;;;;;;;7.07;1.73;;;;;;;;;;4983179;28;20110;-54
2021/12/15 15:13:01;;;;;;;8.30;1.20;;;;;;;;;;4987513;28;20034;-57
2021/12/15 15:15:31;;;;;;;4.15;0.90;;;;;;;;;;4979638;28;20058;-57
2021/12/15 15:18:07;;;;;;;7.78;1.45;;;;;;;;;;4976337;28;20494;-53
2021/12/15 15:20:41;;;;;;;4.70;1.42;;;;;;;;;;4978357;28;20085;-49
2021/12/15 15:23:12;;;;;;;10.98;1.60;;;;;;;;;;4978377;28;20492;-56
2021/12/15 15:29:05;;;;;;;11.23;1.30;;;;;;;;;;4975660;28;20041;-58
2021/12/15 15:31:43;;;;;;;5.50;1.55;;;;;;;;;;4974648;28;20105;-53
2021/12/15 15:34:18;;;;;;;19.58;1.63;;;;;;;;;;4976925;28;20122;-53
2021/12/15 15:37:23;;;;;;;10.52;1.40;;;;;;;;;;4975919;28;20034;-52
2021/12/15 15:40:09;;;;;;;7.57;1.23;;;;;;;;;;4972686;28;20042;-56
2021/12/15 15:42:36;;;;;;;8.77;1.50;;;;;;;;;;4965849;28;20030;-57
2021/12/15 15:45:05;;;;;;;6.13;1.70;;;;;;;;;;4979856;28;20046;-52
2021/12/15 15:47:32;;;;;;;7.20;2.10;;;;;;;;;;4979763;28;20037;-53
2021/12/15 15:50:02;;;;;;;6.20;2.00;;;;;;;;;;4979580;28;20034;-53
2021/12/15 15:52:30;;;;;;;8.00;2.00;;;;;;;;;;4977212;28;20101;-48
2021/12/15 15:55:03;;;;;;;13.68;2.15;;;;;;;;;;4978323;28;20042;-49
2021/12/15 15:57:30;;;;;;;11.43;2.08;;;;;;;;;;4978576;28;20026;-52
2021/12/15 15:59:57;;;;;;;10.85;1.88;;;;;;;;;;4959223;28;20026;-52
2021/12/15 16:02:25;;;;;;;11.48;1.77;;;;;;;;;;4974997;28;20035;-49
2021/12/15 16:04:53;;;;;;;8.10;2.25;;;;;;;;;;4980142;28;20069;-51
2021/12/15 16:07:22;;;;;;;16.60;1.48;;;;;;;;;;4979708;28;20837;-50
2021/12/15 16:09:50;;;;;;;7.93;1.60;;;;;;;;;;4976713;28;20313;-53
2021/12/15 16:12:18;;;;;;;11.70;1.90;;;;;;;;;;4978985;28;20040;-50
2021/12/15 16:14:50;;;;;;;11.65;1.83;;;;;;;;;;4979946;28;20503;-51
2021/12/15 16:17:59;;;;;;;19.40;2.47;;;;;;;;;;4982791;28;20025;-53
2021/12/15 16:20:47;;;;;;;5.35;1.50;;;;;;;;;;4966937;28;20046;-49
2021/12/15 16:23:20;;;;;;;11.43;1.77;;;;;;;;;;4976126;28;20035;-55
2021/12/15 16:25:47;;;;;;;8.20;1.85;;;;;;;;;;4973688;28;20030;-56
2021/12/15 16:28:15;;;;;;;14.18;2.03;;;;;;;;;;4976017;28;20652;-55
2021/12/15 16:30:49;;;;;;;12.85;2.25;;;;;;;;;;4973312;28;20061;-54
2021/12/15 16:33:18;;;;;;;8.45;2.05;;;;;;;;;;4974971;28;20456;-58
2021/12/15 16:35:46;;;;;;;14.77;2.58;;;;;;;;;;4976226;28;20520;-58
2021/12/15 16:38:16;;;;;;;14.25;1.63;;;;;;;;;;4979394;28;20109;-58
2021/12/15 16:41:07;;;;;;;13.35;2.22;;;;;;;;;;4978336;28;20057;-56
2021/12/15 16:43:50;;;;;;;10.20;2.38;;;;;;;;;;4972959;28;20055;-48
2021/12/15 16:46:26;;;;;;;10.65;1.95;;;;;;;;;;4980577;28;20034;-58
2021/12/15 16:48:55;;;;;;;11.73;2.20;;;;;;;;;;4977066;28;20652;-58